Time;durP1;ratioP1;P1;durP2;ratioP2;P2;SDS_P1;SDS_P2;PMS_P1;PMS_P2;Temp;Humidity;BMP_temperature;BMP_pressure;BME280_temperature;BME280_humidity;BME280_pressure;Samples;Min_cycle;Max_cycle;Signal;HPM_P1;HPM_P2
2021/12/14 00:00:40;;;;;;;9.38;7.72;;;;;;;;;;2070053;28;20173;-66
2021/12/14 00:01:43;;;;;;;8.68;7.85;;;;;;;;;;2073432;28;20187;-67
2021/12/14 00:02:45;;;;;;;9.07;8.27;;;;;;;;;;2081452;28;20641;-67
2021/12/14 00:03:47;;;;;;;8.98;8.20;;;;;;;;;;2082215;28;20196;-67
2021/12/14 00:04:47;;;;;;;8.75;7.85;;;;;;;;;;2082130;28;20188;-66
2021/12/14 00:05:48;;;;;;;9.15;8.35;;;;;;;;;;2080325;28;20188;-66
2021/12/14 00:06:49;;;;;;;9.63;8.68;;;;;;;;;;2072550;28;20189;-65
2021/12/14 00:07:49;;;;;;;10.57;8.25;;;;;;;;;;2072154;28;20168;-65
2021/12/14 00:08:56;;;;;;;8.63;7.70;;;;;;;;;;2081096;28;20770;-65
2021/12/14 00:10:11;;;;;;;9.65;8.65;;;;;;;;;;2081017;28;20520;-66
2021/12/14 00:11:27;;;;;;;9.82;8.02;;;;;;;;;;2081534;28;20258;-66
2021/12/14 00:13:43;;;;;;;8.23;7.45;;;;;;;;;;2081708;28;20187;-65
2021/12/14 00:15:48;;;;;;;8.02;7.32;;;;;;;;;;2081351;28;20176;-65
2021/12/14 00:16:50;;;;;;;9.05;8.25;;;;;;;;;;2080618;28;20180;-65
2021/12/14 00:17:53;;;;;;;9.07;8.27;;;;;;;;;;2081560;28;20260;-65
2021/12/14 00:18:53;;;;;;;8.57;7.78;;;;;;;;;;2081459;28;20199;-66
2021/12/14 00:19:55;;;;;;;9.48;8.73;;;;;;;;;;2081836;28;20267;-66
2021/12/14 00:20:58;;;;;;;8.93;7.95;;;;;;;;;;2071717;28;20189;-65
2021/12/14 00:22:17;;;;;;;9.43;8.63;;;;;;;;;;2072152;28;20544;-66
2021/12/14 00:24:21;;;;;;;8.75;7.93;;;;;;;;;;2081632;28;20180;-66
2021/12/14 00:25:24;;;;;;;9.48;8.27;;;;;;;;;;2082096;28;20227;-65
2021/12/14 00:26:24;;;;;;;8.82;7.88;;;;;;;;;;2072727;28;20633;-65
2021/12/14 00:27:25;;;;;;;9.25;8.45;;;;;;;;;;2072790;28;20260;-65
2021/12/14 00:28:27;;;;;;;8.73;7.85;;;;;;;;;;2073048;28;20721;-65
2021/12/14 00:29:35;;;;;;;9.85;8.48;;;;;;;;;;2073050;28;20280;-66
2021/12/14 00:30:36;;;;;;;9.35;8.50;;;;;;;;;;2072000;28;20180;-66
2021/12/14 00:31:37;;;;;;;9.52;8.52;;;;;;;;;;2072824;28;20843;-66
2021/12/14 00:32:38;;;;;;;9.05;8.30;;;;;;;;;;2082035;28;20534;-65
2021/12/14 00:33:39;;;;;;;9.63;8.48;;;;;;;;;;2081294;28;20202;-67
2021/12/14 00:34:42;;;;;;;8.40;7.60;;;;;;;;;;2073164;28;20169;-65
2021/12/14 00:35:43;;;;;;;9.95;8.95;;;;;;;;;;2068097;28;20677;-65
2021/12/14 00:36:43;;;;;;;8.73;7.93;;;;;;;;;;2081289;28;20191;-64
2021/12/14 00:37:45;;;;;;;9.55;8.35;;;;;;;;;;2073970;28;20192;-66
2021/12/14 00:38:46;;;;;;;8.70;7.90;;;;;;;;;;2073797;28;20161;-66
2021/12/14 00:39:47;;;;;;;10.88;8.43;;;;;;;;;;2080727;28;20730;-66
2021/12/14 00:40:51;;;;;;;9.45;8.45;;;;;;;;;;2072691;28;20177;-67
2021/12/14 00:41:51;;;;;;;8.07;7.38;;;;;;;;;;2073467;28;20184;-66
2021/12/14 00:42:52;;;;;;;7.90;7.10;;;;;;;;;;2073000;28;20173;-66
2021/12/14 00:43:52;;;;;;;8.73;7.93;;;;;;;;;;2064220;28;20272;-66
2021/12/14 00:44:53;;;;;;;10.05;9.13;;;;;;;;;;2072326;28;20192;-67
2021/12/14 00:45:53;;;;;;;9.35;8.45;;;;;;;;;;2064237;28;20189;-66
2021/12/14 00:46:54;;;;;;;9.30;8.27;;;;;;;;;;2072835;28;20215;-67
2021/12/14 00:47:54;;;;;;;8.98;8.05;;;;;;;;;;2073116;28;20246;-66
2021/12/14 00:48:55;;;;;;;8.93;8.20;;;;;;;;;;2079904;28;20337;-65
2021/12/14 00:49:56;;;;;;;8.75;8.00;;;;;;;;;;2079348;28;20207;-64
2021/12/14 00:50:58;;;;;;;9.20;8.30;;;;;;;;;;2078704;28;20226;-65
2021/12/14 00:51:59;;;;;;;9.15;8.23;;;;;;;;;;2071857;28;20184;-66
2021/12/14 00:52:59;;;;;;;9.20;8.32;;;;;;;;;;2072517;28;20169;-65
2021/12/14 00:54:01;;;;;;;8.57;7.88;;;;;;;;;;2073159;28;20264;-65
2021/12/14 00:55:03;;;;;;;8.50;7.70;;;;;;;;;;2073760;28;20211;-65
2021/12/14 00:56:06;;;;;;;9.82;7.55;;;;;;;;;;2081172;28;20199;-65
2021/12/14 00:57:07;;;;;;;9.13;8.32;;;;;;;;;;2077634;28;20332;-64
2021/12/14 00:58:09;;;;;;;9.05;7.65;;;;;;;;;;2081003;28;20195;-65
2021/12/14 00:59:12;;;;;;;10.50;7.38;;;;;;;;;;2072144;28;20260;-66
2021/12/14 01:00:16;;;;;;;9.10;7.63;;;;;;;;;;2063674;28;20166;-64
2021/12/14 01:01:16;;;;;;;8.55;7.80;;;;;;;;;;2064979;28;20197;-65
2021/12/14 01:02:19;;;;;;;8.70;8.00;;;;;;;;;;2064593;28;20669;-65
2021/12/14 01:03:19;;;;;;;9.23;8.43;;;;;;;;;;2071863;28;20207;-66
2021/12/14 01:04:25;;;;;;;8.10;7.40;;;;;;;;;;2072583;28;20271;-64
2021/12/14 01:05:28;;;;;;;8.80;8.00;;;;;;;;;;2078217;28;20176;-65
2021/12/14 01:06:31;;;;;;;8.57;7.88;;;;;;;;;;2073070;28;20183;-65
2021/12/14 01:07:31;;;;;;;8.43;7.60;;;;;;;;;;2077479;28;20195;-66
2021/12/14 01:08:36;;;;;;;8.20;7.38;;;;;;;;;;2075275;28;20196;-66
2021/12/14 01:09:39;;;;;;;8.73;8.02;;;;;;;;;;2080516;28;20172;-66
2021/12/14 01:10:47;;;;;;;8.50;7.60;;;;;;;;;;2071788;28;20608;-67
2021/12/14 01:11:48;;;;;;;8.75;8.02;;;;;;;;;;2061877;28;20169;-66
2021/12/14 01:12:52;;;;;;;8.95;8.15;;;;;;;;;;2063490;28;20553;-65
2021/12/14 01:13:59;;;;;;;7.88;7.15;;;;;;;;;;2072511;28;20199;-65
2021/12/14 01:16:37;;;;;;;7.82;7.13;;;;;;;;;;2071678;28;20208;-65
2021/12/14 01:17:54;;;;;;;7.75;7.15;;;;;;;;;;2071691;28;20196;-65
2021/12/14 01:19:11;;;;;;;7.93;7.22;;;;;;;;;;2072138;28;20839;-65
2021/12/14 01:20:12;;;;;;;8.73;8.00;;;;;;;;;;2064031;28;20165;-67
2021/12/14 01:21:43;;;;;;;9.10;8.20;;;;;;;;;;2064678;28;20181;-65
2021/12/14 01:22:46;;;;;;;8.07;7.40;;;;;;;;;;2064752;28;20646;-65
2021/12/14 01:23:47;;;;;;;8.25;7.53;;;;;;;;;;2063648;28;20204;-65
2021/12/14 01:26:08;;;;;;;7.78;6.95;;;;;;;;;;2073453;28;20195;-66
2021/12/14 01:27:10;;;;;;;9.00;7.95;;;;;;;;;;2080388;28;20550;-65
2021/12/14 01:28:13;;;;;;;8.52;7.78;;;;;;;;;;2071771;28;20707;-66
2021/12/14 01:29:16;;;;;;;9.32;8.43;;;;;;;;;;2076940;28;20184;-67
2021/12/14 01:30:36;;;;;;;8.95;8.15;;;;;;;;;;2071903;28;20181;-64
2021/12/14 01:31:40;;;;;;;7.95;7.15;;;;;;;;;;2074017;28;20356;-67
2021/12/14 01:32:44;;;;;;;8.65;7.85;;;;;;;;;;2078265;28;20235;-65
2021/12/14 01:33:48;;;;;;;8.45;7.55;;;;;;;;;;2072780;28;20593;-64
2021/12/14 01:34:52;;;;;;;8.30;7.57;;;;;;;;;;2066276;28;20186;-65
2021/12/14 01:35:53;;;;;;;8.90;8.10;;;;;;;;;;2065719;28;20184;-65
2021/12/14 01:36:58;;;;;;;9.57;8.73;;;;;;;;;;2065263;28;20189;-66
2021/12/14 01:38:04;;;;;;;8.95;7.85;;;;;;;;;;2065167;28;20178;-65
2021/12/14 01:40:53;;;;;;;8.77;7.78;;;;;;;;;;2043924;29;20210;-66
2021/12/14 01:42:04;;;;;;;10.48;8.32;;;;;;;;;;2067262;28;20565;-66
2021/12/14 01:43:05;;;;;;;8.88;8.02;;;;;;;;;;2074551;28;20165;-66
2021/12/14 01:44:06;;;;;;;10.18;8.75;;;;;;;;;;2073790;28;20189;-66
2021/12/14 01:45:15;;;;;;;8.73;7.88;;;;;;;;;;2067398;28;20166;-66
2021/12/14 01:46:22;;;;;;;9.27;8.38;;;;;;;;;;2073753;28;20303;-66
2021/12/14 01:47:29;;;;;;;10.68;8.95;;;;;;;;;;2066710;28;20165;-66
2021/12/14 01:49:07;;;;;;;9.90;8.90;;;;;;;;;;2078596;28;20212;-64
2021/12/14 01:50:32;;;;;;;10.25;8.77;;;;;;;;;;2068310;28;20200;-63
2021/12/14 01:52:05;;;;;;;9.55;8.65;;;;;;;;;;2061952;28;20282;-66
2021/12/14 01:53:07;;;;;;;10.88;9.82;;;;;;;;;;2071782;28;20250;-65
2021/12/14 01:54:10;;;;;;;11.75;8.68;;;;;;;;;;2073551;28;20298;-66
2021/12/14 01:55:22;;;;;;;10.77;8.88;;;;;;;;;;2064784;28;20310;-66
2021/12/14 01:56:25;;;;;;;11.00;8.90;;;;;;;;;;2069832;28;20708;-66
2021/12/14 01:57:29;;;;;;;9.77;8.63;;;;;;;;;;2065372;28;20280;-67
2021/12/14 01:58:38;;;;;;;10.85;9.65;;;;;;;;;;2058006;28;20536;-67
2021/12/14 01:59:40;;;;;;;10.27;9.27;;;;;;;;;;2064300;28;20636;-66
2021/12/14 02:00:52;;;;;;;11.98;9.00;;;;;;;;;;2064923;28;20185;-66
2021/12/14 02:02:07;;;;;;;10.85;9.77;;;;;;;;;;2066518;28;20564;-66
2021/12/14 02:03:09;;;;;;;12.43;9.63;;;;;;;;;;2073142;28;20179;-66
2021/12/14 02:04:17;;;;;;;10.95;9.52;;;;;;;;;;2065911;28;20634;-66
2021/12/14 02:05:23;;;;;;;11.15;9.25;;;;;;;;;;2073615;28;20221;-67
2021/12/14 02:06:29;;;;;;;10.75;8.93;;;;;;;;;;2066328;28;20184;-66
2021/12/14 02:07:30;;;;;;;10.32;9.25;;;;;;;;;;2071355;28;20173;-65
2021/12/14 02:08:33;;;;;;;10.15;9.05;;;;;;;;;;2078197;28;20180;-65
2021/12/14 02:09:35;;;;;;;11.20;9.82;;;;;;;;;;2068017;28;20212;-64
2021/12/14 02:10:36;;;;;;;11.15;9.10;;;;;;;;;;2073383;28;20579;-65
2021/12/14 02:11:40;;;;;;;11.57;9.13;;;;;;;;;;2073185;28;20188;-65
2021/12/14 02:12:43;;;;;;;10.80;9.57;;;;;;;;;;2073890;28;20227;-65
2021/12/14 02:13:45;;;;;;;10.50;9.23;;;;;;;;;;2082619;28;20196;-66
2021/12/14 02:14:50;;;;;;;10.73;9.63;;;;;;;;;;2073715;28;20195;-66
2021/12/14 02:15:50;;;;;;;11.02;10.02;;;;;;;;;;2065075;28;20181;-66
2021/12/14 02:16:56;;;;;;;10.63;9.55;;;;;;;;;;2073117;28;20288;-66
2021/12/14 02:17:58;;;;;;;12.07;9.70;;;;;;;;;;2067377;28;20217;-65
2021/12/14 02:19:05;;;;;;;11.10;9.98;;;;;;;;;;2064529;28;20173;-65
2021/12/14 02:20:06;;;;;;;10.13;9.10;;;;;;;;;;2073725;28;20184;-66
2021/12/14 02:21:09;;;;;;;10.57;9.20;;;;;;;;;;2073121;28;20193;-66
2021/12/14 02:22:10;;;;;;;12.30;9.68;;;;;;;;;;2064779;28;20245;-65
2021/12/14 02:23:10;;;;;;;11.02;9.93;;;;;;;;;;2065993;28;20209;-65
2021/12/14 02:24:11;;;;;;;10.43;9.38;;;;;;;;;;2064429;28;20221;-66
2021/12/14 02:25:12;;;;;;;11.32;9.88;;;;;;;;;;2073791;28;20281;-65
2021/12/14 02:26:14;;;;;;;9.85;8.63;;;;;;;;;;2078695;28;20248;-65
2021/12/14 02:27:17;;;;;;;10.70;9.50;;;;;;;;;;2072875;28;20219;-65
2021/12/14 02:28:20;;;;;;;10.60;9.50;;;;;;;;;;2064464;28;20177;-66
2021/12/14 02:29:21;;;;;;;10.52;9.50;;;;;;;;;;2064180;28;20213;-65
2021/12/14 02:30:27;;;;;;;9.73;8.82;;;;;;;;;;2063914;28;20205;-66
2021/12/14 02:31:28;;;;;;;9.88;8.88;;;;;;;;;;2071695;28;20211;-66
2021/12/14 02:32:29;;;;;;;9.80;8.70;;;;;;;;;;2072985;28;20192;-66
2021/12/14 02:33:32;;;;;;;11.40;9.15;;;;;;;;;;2064934;28;20220;-65
2021/12/14 02:34:42;;;;;;;10.23;9.05;;;;;;;;;;2065463;28;20280;-65
2021/12/14 02:35:42;;;;;;;10.50;9.40;;;;;;;;;;2062181;28;20192;-64
2021/12/14 02:36:44;;;;;;;12.48;10.57;;;;;;;;;;2071289;28;20641;-66
2021/12/14 02:37:45;;;;;;;10.23;9.25;;;;;;;;;;2069550;28;20185;-65
2021/12/14 02:38:48;;;;;;;9.73;8.73;;;;;;;;;;2064308;28;20253;-65
2021/12/14 02:40:02;;;;;;;11.05;9.85;;;;;;;;;;2065178;28;20185;-66
2021/12/14 02:41:06;;;;;;;10.13;9.15;;;;;;;;;;2074527;28;20522;-66
2021/12/14 02:42:23;;;;;;;11.15;9.18;;;;;;;;;;2073138;28;20169;-66
2021/12/14 02:43:26;;;;;;;9.93;8.93;;;;;;;;;;2064500;28;20212;-65
2021/12/14 02:44:26;;;;;;;10.93;9.63;;;;;;;;;;2065055;28;20170;-66
2021/12/14 02:45:27;;;;;;;12.20;9.93;;;;;;;;;;2067638;28;20235;-66
2021/12/14 02:46:33;;;;;;;10.95;9.85;;;;;;;;;;2073270;28;20173;-64
2021/12/14 02:47:34;;;;;;;10.85;9.32;;;;;;;;;;2079302;28;20168;-65
2021/12/14 02:48:34;;;;;;;12.35;9.73;;;;;;;;;;2081254;28;20199;-66
2021/12/14 02:49:35;;;;;;;11.82;9.38;;;;;;;;;;2067673;28;20599;-65
2021/12/14 02:50:36;;;;;;;10.95;9.35;;;;;;;;;;2070484;28;20172;-65
2021/12/14 02:51:38;;;;;;;11.27;9.98;;;;;;;;;;2068160;28;20192;-66
2021/12/14 02:52:39;;;;;;;10.52;9.43;;;;;;;;;;2069069;28;20169;-65
2021/12/14 02:53:40;;;;;;;12.55;10.45;;;;;;;;;;2059287;28;20805;-66
2021/12/14 02:54:46;;;;;;;11.98;10.15;;;;;;;;;;2055872;28;20186;-66
2021/12/14 02:55:46;;;;;;;11.77;10.02;;;;;;;;;;2062169;28;20587;-65
2021/12/14 02:56:49;;;;;;;11.80;10.10;;;;;;;;;;2068827;28;20236;-65
2021/12/14 02:57:52;;;;;;;10.60;9.63;;;;;;;;;;2071584;28;20177;-66
2021/12/14 02:59:13;;;;;;;11.27;9.82;;;;;;;;;;2065547;28;20185;-66
2021/12/14 03:00:36;;;;;;;13.68;10.60;;;;;;;;;;2070324;28;20666;-65
2021/12/14 03:01:38;;;;;;;11.00;9.82;;;;;;;;;;2054381;28;20243;-65
2021/12/14 03:02:39;;;;;;;11.63;10.43;;;;;;;;;;2057283;28;20171;-66
2021/12/14 03:03:40;;;;;;;11.07;9.98;;;;;;;;;;2064479;28;20293;-66
2021/12/14 03:04:42;;;;;;;12.48;10.90;;;;;;;;;;2073402;28;20228;-65
2021/12/14 03:05:45;;;;;;;12.40;10.93;;;;;;;;;;2073038;28;20173;-66
2021/12/14 03:06:48;;;;;;;12.57;11.27;;;;;;;;;;2065076;28;20174;-66
2021/12/14 03:07:51;;;;;;;14.98;11.68;;;;;;;;;;2065304;28;20178;-66
2021/12/14 03:09:16;;;;;;;12.23;10.95;;;;;;;;;;2070096;28;20188;-66
2021/12/14 03:11:19;;;;;;;11.95;10.85;;;;;;;;;;2072578;28;20208;-64
2021/12/14 03:12:21;;;;;;;12.68;11.25;;;;;;;;;;2081639;28;20699;-64
2021/12/14 03:13:23;;;;;;;12.93;11.13;;;;;;;;;;2081306;28;20176;-63
2021/12/14 03:14:23;;;;;;;14.10;11.65;;;;;;;;;;2081278;28;20548;-65
2021/12/14 03:15:27;;;;;;;14.27;11.20;;;;;;;;;;2072803;28;20256;-66
2021/12/14 03:16:29;;;;;;;12.23;10.98;;;;;;;;;;2063928;28;20728;-66
2021/12/14 03:17:30;;;;;;;12.35;11.10;;;;;;;;;;2064685;28;20258;-65
2021/12/14 03:18:32;;;;;;;12.73;11.40;;;;;;;;;;2072311;28;20261;-66
2021/12/14 03:19:32;;;;;;;13.90;11.30;;;;;;;;;;2081690;28;20192;-65
2021/12/14 03:20:38;;;;;;;14.68;12.43;;;;;;;;;;2080963;28;20721;-65
2021/12/14 03:21:41;;;;;;;11.95;10.75;;;;;;;;;;2072000;28;20177;-66
2021/12/14 03:22:46;;;;;;;12.55;11.02;;;;;;;;;;2072593;28;20185;-67
2021/12/14 03:23:48;;;;;;;13.35;11.63;;;;;;;;;;2072153;28;20240;-66
2021/12/14 03:24:48;;;;;;;13.10;10.90;;;;;;;;;;2073228;28;20319;-65
2021/12/14 03:25:52;;;;;;;12.63;11.30;;;;;;;;;;2075366;28;20582;-67
2021/12/14 03:26:53;;;;;;;11.88;10.57;;;;;;;;;;2079177;28;20188;-67
2021/12/14 03:27:54;;;;;;;12.52;11.10;;;;;;;;;;2071854;28;20173;-66
2021/12/14 03:28:56;;;;;;;12.23;10.93;;;;;;;;;;2064399;28;20240;-66
2021/12/14 03:29:58;;;;;;;13.57;11.45;;;;;;;;;;2067249;28;20210;-66
2021/12/14 03:30:58;;;;;;;12.38;11.18;;;;;;;;;;2064472;28;20190;-66
2021/12/14 03:31:58;;;;;;;13.23;11.85;;;;;;;;;;2071369;28;20173;-65
2021/12/14 03:33:07;;;;;;;13.88;11.15;;;;;;;;;;2071794;28;20183;-67
2021/12/14 03:34:07;;;;;;;11.80;10.40;;;;;;;;;;2064407;28;20193;-66
2021/12/14 03:35:08;;;;;;;11.65;10.50;;;;;;;;;;2064826;28;20188;-67
2021/12/14 03:36:13;;;;;;;13.02;11.15;;;;;;;;;;2069174;28;20200;-66
2021/12/14 03:37:21;;;;;;;12.20;11.00;;;;;;;;;;2064140;28;20194;-66
2021/12/14 03:38:23;;;;;;;11.40;10.30;;;;;;;;;;2061845;28;20181;-67
2021/12/14 03:39:28;;;;;;;12.00;10.80;;;;;;;;;;2064475;28;20225;-67
2021/12/14 03:40:28;;;;;;;12.35;11.05;;;;;;;;;;2063605;28;20166;-67
2021/12/14 03:41:31;;;;;;;13.35;11.95;;;;;;;;;;2059157;28;20178;-66
2021/12/14 03:42:36;;;;;;;13.60;11.55;;;;;;;;;;2066069;28;20295;-66
2021/12/14 03:43:41;;;;;;;17.05;11.82;;;;;;;;;;2065339;28;20623;-66
2021/12/14 03:44:49;;;;;;;13.30;11.50;;;;;;;;;;2072588;28;20720;-67
2021/12/14 03:45:53;;;;;;;13.20;11.73;;;;;;;;;;2071923;28;20675;-65
2021/12/14 03:47:12;;;;;;;13.90;10.98;;;;;;;;;;2064125;28;20204;-66
2021/12/14 03:48:15;;;;;;;12.57;11.10;;;;;;;;;;2068083;28;20216;-66
2021/12/14 03:49:16;;;;;;;12.27;11.07;;;;;;;;;;2080697;28;20160;-66
2021/12/14 03:50:22;;;;;;;15.02;11.73;;;;;;;;;;2071913;28;20697;-67
2021/12/14 03:51:23;;;;;;;12.85;10.77;;;;;;;;;;2064355;28;20243;-68
2021/12/14 03:52:26;;;;;;;13.07;10.73;;;;;;;;;;2064561;28;20169;-65
2021/12/14 03:53:28;;;;;;;14.00;11.93;;;;;;;;;;2064628;28;20174;-67
2021/12/14 03:54:29;;;;;;;13.30;11.90;;;;;;;;;;2072643;28;20189;-66
2021/12/14 03:55:31;;;;;;;12.90;11.60;;;;;;;;;;2071818;28;20219;-66
2021/12/14 03:56:32;;;;;;;13.57;11.77;;;;;;;;;;2063533;28;20711;-65
2021/12/14 03:57:32;;;;;;;12.00;10.85;;;;;;;;;;2060951;28;20178;-67
2021/12/14 03:58:38;;;;;;;13.00;11.70;;;;;;;;;;2073152;28;20170;-66
2021/12/14 03:59:39;;;;;;;12.95;11.60;;;;;;;;;;2072738;28;20177;-66
2021/12/14 04:00:42;;;;;;;12.53;11.23;;;;;;;;;;2072099;28;20195;-66
2021/12/14 04:01:44;;;;;;;13.82;11.68;;;;;;;;;;2072107;28;20165;-66
2021/12/14 04:02:44;;;;;;;12.85;11.45;;;;;;;;;;2071494;28;20180;-66
2021/12/14 04:03:47;;;;;;;13.18;11.77;;;;;;;;;;2059447;28;20210;-66
2021/12/14 04:05:05;;;;;;;15.00;11.65;;;;;;;;;;2062870;28;20174;-67
2021/12/14 04:06:08;;;;;;;14.13;12.57;;;;;;;;;;2064051;28;20180;-67
2021/12/14 04:07:11;;;;;;;15.15;11.57;;;;;;;;;;2056303;28;20175;-66
2021/12/14 04:08:14;;;;;;;13.07;11.77;;;;;;;;;;2067414;28;20174;-67
2021/12/14 04:09:16;;;;;;;13.90;12.07;;;;;;;;;;2072604;28;20209;-65
2021/12/14 04:10:19;;;;;;;13.95;11.88;;;;;;;;;;2064709;28;20227;-66
2021/12/14 04:11:20;;;;;;;14.52;12.27;;;;;;;;;;2063925;28;20280;-65
2021/12/14 04:12:20;;;;;;;13.82;12.15;;;;;;;;;;2063499;28;20193;-66
2021/12/14 04:13:24;;;;;;;13.52;11.57;;;;;;;;;;2072169;28;20268;-67
2021/12/14 04:14:29;;;;;;;14.13;12.52;;;;;;;;;;2063762;28;20940;-67
2021/12/14 04:15:29;;;;;;;13.43;12.05;;;;;;;;;;2059111;28;20257;-66
2021/12/14 04:16:30;;;;;;;13.10;11.73;;;;;;;;;;2063620;28;20248;-67
2021/12/14 04:17:30;;;;;;;13.57;11.43;;;;;;;;;;2061710;28;20646;-64
2021/12/14 04:18:31;;;;;;;14.82;11.75;;;;;;;;;;2059312;28;20221;-65
2021/12/14 04:19:31;;;;;;;13.05;11.80;;;;;;;;;;2059580;28;20197;-66
2021/12/14 04:20:35;;;;;;;14.02;11.68;;;;;;;;;;2063664;28;20177;-66
2021/12/14 04:21:41;;;;;;;13.40;12.05;;;;;;;;;;2064136;28;20169;-67
2021/12/14 04:22:48;;;;;;;13.43;11.32;;;;;;;;;;2065726;28;20170;-66
2021/12/14 04:23:52;;;;;;;14.98;12.98;;;;;;;;;;2072540;28;20224;-67
2021/12/14 04:24:56;;;;;;;13.38;11.98;;;;;;;;;;2072427;28;20180;-66
2021/12/14 04:25:58;;;;;;;14.23;12.73;;;;;;;;;;2072903;28;20177;-64
2021/12/14 04:27:00;;;;;;;15.10;12.73;;;;;;;;;;2080403;28;20215;-65
2021/12/14 04:28:06;;;;;;;12.80;11.50;;;;;;;;;;2065808;28;20233;-66
2021/12/14 04:29:06;;;;;;;14.38;12.93;;;;;;;;;;2065647;28;20555;-66
2021/12/14 04:30:11;;;;;;;14.23;12.82;;;;;;;;;;2064912;28;20261;-66
2021/12/14 04:31:11;;;;;;;14.32;12.68;;;;;;;;;;2064820;28;20692;-66
2021/12/14 04:32:13;;;;;;;14.05;12.25;;;;;;;;;;2065748;28;20656;-66
2021/12/14 04:33:15;;;;;;;16.48;13.20;;;;;;;;;;2065514;28;20176;-66
2021/12/14 04:34:17;;;;;;;13.75;12.35;;;;;;;;;;2072649;28;20201;-65
2021/12/14 04:35:18;;;;;;;13.98;12.55;;;;;;;;;;2065369;28;20592;-66
2021/12/14 04:36:22;;;;;;;14.32;12.82;;;;;;;;;;2057570;28;20213;-66
2021/12/14 04:37:23;;;;;;;14.85;13.35;;;;;;;;;;2064721;28;20169;-66
2021/12/14 04:38:29;;;;;;;14.10;12.60;;;;;;;;;;2065097;28;20615;-65
2021/12/14 04:39:43;;;;;;;15.30;13.32;;;;;;;;;;2064835;28;20643;-65
2021/12/14 04:52:26;;;;;;;15.52;13.88;;;;;;;;;;2070042;28;20584;-66
2021/12/14 04:53:32;;;;;;;16.58;14.38;;;;;;;;;;2065482;28;20189;-66
2021/12/14 04:54:36;;;;;;;16.50;14.00;;;;;;;;;;2065013;28;20300;-66
2021/12/14 04:55:44;;;;;;;16.23;13.45;;;;;;;;;;2063986;28;20224;-67
2021/12/14 04:56:45;;;;;;;16.15;14.45;;;;;;;;;;2069325;28;20269;-67
2021/12/14 04:57:47;;;;;;;16.98;15.18;;;;;;;;;;2063329;28;20173;-67
2021/12/14 04:58:51;;;;;;;17.13;15.40;;;;;;;;;;2068784;28;20574;-67
2021/12/14 04:59:52;;;;;;;18.85;14.55;;;;;;;;;;2079501;28;20272;-66
2021/12/14 05:00:53;;;;;;;17.20;14.38;;;;;;;;;;2077236;28;20184;-66
2021/12/14 05:02:11;;;;;;;15.70;14.07;;;;;;;;;;2071955;28;20176;-66
2021/12/14 05:03:29;;;;;;;16.70;14.95;;;;;;;;;;2062241;28;20173;-65
2021/12/14 05:04:29;;;;;;;15.95;13.73;;;;;;;;;;2059295;28;20201;-65
2021/12/14 05:05:32;;;;;;;17.02;14.80;;;;;;;;;;2065659;28;20181;-66
2021/12/14 05:06:45;;;;;;;17.25;14.85;;;;;;;;;;2067281;28;20176;-66
2021/12/14 05:09:19;;;;;;;16.05;14.27;;;;;;;;;;2068863;28;20672;-66
2021/12/14 05:09:26;;;;;;;17.52;15.27;;;;;;;;;;2059750;28;20342;-65
2021/12/14 05:10:54;;;;;;;17.73;14.65;;;;;;;;;;2063452;28;20185;-66
2021/12/14 05:11:56;;;;;;;18.38;15.73;;;;;;;;;;2071754;28;20602;-65
2021/12/14 05:12:57;;;;;;;18.80;16.55;;;;;;;;;;2064725;28;20265;-65
2021/12/14 05:14:05;;;;;;;17.85;16.02;;;;;;;;;;2065267;28;20252;-65
2021/12/14 05:15:14;;;;;;;16.95;14.88;;;;;;;;;;2065613;28;20193;-66
2021/12/14 05:16:23;;;;;;;18.08;15.68;;;;;;;;;;2064337;28;20197;-64
2021/12/14 05:17:27;;;;;;;18.50;16.00;;;;;;;;;;2063297;28;20778;-65
2021/12/14 05:18:29;;;;;;;19.80;16.02;;;;;;;;;;2072245;28;20289;-66
2021/12/14 05:19:31;;;;;;;19.08;15.90;;;;;;;;;;2071409;28;20265;-67
2021/12/14 05:20:31;;;;;;;19.20;16.38;;;;;;;;;;2064301;28;20235;-66
2021/12/14 05:21:34;;;;;;;19.95;16.20;;;;;;;;;;2063476;28;20174;-66
2021/12/14 05:22:36;;;;;;;21.42;16.75;;;;;;;;;;2063856;28;20174;-65
2021/12/14 05:23:37;;;;;;;19.27;17.27;;;;;;;;;;2064215;28;20174;-66
2021/12/14 05:24:41;;;;;;;19.85;17.45;;;;;;;;;;2065001;28;20592;-66
2021/12/14 05:25:42;;;;;;;19.30;17.25;;;;;;;;;;2064179;28;20169;-66
2021/12/14 05:26:48;;;;;;;19.60;17.52;;;;;;;;;;2064662;28;20178;-67
2021/12/14 05:27:51;;;;;;;21.25;17.27;;;;;;;;;;2064418;28;20232;-66
2021/12/14 05:28:52;;;;;;;19.08;16.45;;;;;;;;;;2064643;28;20230;-66
2021/12/14 05:30:03;;;;;;;19.02;16.42;;;;;;;;;;2064740;28;20232;-66
2021/12/14 05:31:04;;;;;;;17.98;16.08;;;;;;;;;;2064881;28;20185;-67
2021/12/14 05:32:15;;;;;;;18.25;16.08;;;;;;;;;;2064784;28;20174;-66
2021/12/14 05:33:18;;;;;;;18.98;16.35;;;;;;;;;;2063678;28;20186;-67
2021/12/14 05:34:24;;;;;;;18.55;16.52;;;;;;;;;;2063520;28;20185;-65
2021/12/14 05:35:27;;;;;;;18.42;16.60;;;;;;;;;;2064330;28;20697;-65
2021/12/14 05:36:28;;;;;;;19.98;17.20;;;;;;;;;;2072300;28;20235;-65
2021/12/14 05:37:33;;;;;;;20.67;17.08;;;;;;;;;;2072885;28;20184;-65
2021/12/14 05:38:45;;;;;;;21.25;18.08;;;;;;;;;;2065974;28;20169;-65
2021/12/14 05:40:15;;;;;;;20.92;17.23;;;;;;;;;;2077645;28;20172;-65
2021/12/14 05:44:25;;;;;;;18.17;16.27;;;;;;;;;;2071486;28;20176;-65
2021/12/14 05:45:25;;;;;;;20.00;17.90;;;;;;;;;;2080365;28;20169;-66
2021/12/14 05:46:28;;;;;;;20.23;17.92;;;;;;;;;;2072727;28;20177;-66
2021/12/14 05:47:55;;;;;;;19.35;16.80;;;;;;;;;;2067106;28;20199;-65
2021/12/14 05:49:06;;;;;;;21.15;18.85;;;;;;;;;;2068497;28;20236;-66
2021/12/14 05:50:07;;;;;;;20.52;18.17;;;;;;;;;;2058759;28;20686;-61
2021/12/14 05:51:09;;;;;;;21.10;18.80;;;;;;;;;;2049332;28;20735;-66
2021/12/14 05:52:14;;;;;;;22.02;19.10;;;;;;;;;;2065122;28;20650;-66
2021/12/14 05:53:35;;;;;;;19.80;17.48;;;;;;;;;;2063590;28;20242;-66
2021/12/14 05:54:36;;;;;;;22.23;18.33;;;;;;;;;;2068598;28;20178;-65
2021/12/14 05:55:39;;;;;;;19.80;17.70;;;;;;;;;;2064150;28;20777;-66
2021/12/14 05:56:40;;;;;;;21.27;18.92;;;;;;;;;;2067788;28;20308;-65
2021/12/14 05:57:41;;;;;;;23.27;18.35;;;;;;;;;;2061409;28;20230;-66
2021/12/14 05:58:42;;;;;;;21.67;18.92;;;;;;;;;;2067304;28;20464;-66
2021/12/14 05:59:42;;;;;;;20.55;18.35;;;;;;;;;;2074982;28;20216;-66
2021/12/14 06:00:45;;;;;;;22.75;18.80;;;;;;;;;;2073919;28;20197;-65
2021/12/14 06:01:47;;;;;;;23.90;19.10;;;;;;;;;;2074088;28;20173;-66
2021/12/14 06:02:47;;;;;;;21.58;18.80;;;;;;;;;;2074471;28;20173;-66
2021/12/14 06:03:51;;;;;;;20.70;18.60;;;;;;;;;;2074409;28;20197;-65
2021/12/14 06:04:53;;;;;;;21.88;19.65;;;;;;;;;;2073561;28;20207;-64
2021/12/14 06:05:54;;;;;;;20.67;18.55;;;;;;;;;;2074997;28;20194;-65
2021/12/14 06:06:55;;;;;;;21.70;19.00;;;;;;;;;;2066088;28;20190;-66
2021/12/14 06:07:56;;;;;;;20.60;18.30;;;;;;;;;;2070745;28;20173;-64
2021/12/14 06:09:06;;;;;;;23.33;19.30;;;;;;;;;;2065865;28;20689;-65
2021/12/14 06:10:10;;;;;;;25.10;19.10;;;;;;;;;;2068102;28;20174;-65
2021/12/14 06:11:20;;;;;;;22.83;20.38;;;;;;;;;;2063154;28;20177;-65
2021/12/14 06:12:22;;;;;;;20.60;18.23;;;;;;;;;;2063711;28;20553;-64
2021/12/14 06:13:39;;;;;;;22.10;18.90;;;;;;;;;;2063757;28;20721;-63
2021/12/14 06:14:50;;;;;;;21.15;17.70;;;;;;;;;;2069631;28;20212;-64
2021/12/14 06:15:50;;;;;;;22.05;19.77;;;;;;;;;;2071886;28;20189;-65
2021/12/14 06:16:57;;;;;;;20.27;18.08;;;;;;;;;;2063666;28;20174;-64
2021/12/14 06:17:57;;;;;;;24.33;19.45;;;;;;;;;;2072341;28;20177;-67
2021/12/14 06:19:34;;;;;;;22.60;19.90;;;;;;;;;;2055559;28;20632;-67
2021/12/14 06:20:37;;;;;;;22.65;19.60;;;;;;;;;;2081065;28;20306;-67
2021/12/14 06:21:42;;;;;;;25.20;20.88;;;;;;;;;;2073491;28;20203;-67
2021/12/14 06:22:42;;;;;;;22.40;18.77;;;;;;;;;;2073587;28;20181;-65
2021/12/14 06:23:44;;;;;;;21.13;18.83;;;;;;;;;;2073073;28;20205;-60
2021/12/14 06:24:53;;;;;;;20.95;18.45;;;;;;;;;;2073917;28;20665;-64
2021/12/14 06:25:57;;;;;;;23.77;20.73;;;;;;;;;;2073259;28;20180;-58
2021/12/14 06:26:59;;;;;;;22.65;20.25;;;;;;;;;;2079948;28;20183;-66
2021/12/14 06:28:01;;;;;;;22.20;19.70;;;;;;;;;;2072697;28;20255;-67
2021/12/14 06:29:22;;;;;;;23.55;20.42;;;;;;;;;;2064727;28;20677;-66
2021/12/14 06:30:25;;;;;;;23.35;19.52;;;;;;;;;;2061667;28;20170;-65
2021/12/14 06:31:25;;;;;;;26.90;21.60;;;;;;;;;;2064426;28;20772;-66
2021/12/14 06:32:27;;;;;;;22.80;20.40;;;;;;;;;;2072511;28;20193;-65
2021/12/14 06:33:30;;;;;;;23.15;20.65;;;;;;;;;;2072412;28;20208;-65
2021/12/14 06:34:30;;;;;;;23.02;20.48;;;;;;;;;;2065813;28;20181;-65
2021/12/14 06:35:35;;;;;;;24.05;20.52;;;;;;;;;;2066163;28;20232;-65
2021/12/14 06:37:03;;;;;;;27.67;21.35;;;;;;;;;;2069590;28;20248;-65
2021/12/14 06:39:18;;;;;;;23.33;19.92;;;;;;;;;;2072949;28;20174;-65
2021/12/14 06:40:20;;;;;;;23.77;19.80;;;;;;;;;;2077958;28;20603;-65
2021/12/14 06:41:22;;;;;;;23.33;19.73;;;;;;;;;;2072528;28;20165;-64
2021/12/14 06:42:33;;;;;;;21.77;19.27;;;;;;;;;;2057719;28;20296;-64
2021/12/14 06:43:49;;;;;;;24.45;21.45;;;;;;;;;;2053469;28;20179;-64
2021/12/14 06:45:01;;;;;;;21.63;19.33;;;;;;;;;;2069777;28;20263;-63